createdAt,value
2019-03-20T00:01:26.250Z,29.00
2019-03-20T00:03:52.914Z,29.30
2019-03-20T00:06:19.625Z,27.67
2019-03-20T00:08:46.187Z,27.27
2019-03-20T00:11:50.403Z,29.63
2019-03-20T00:14:18.269Z,25.30
2019-03-20T00:16:44.915Z,25.13
2019-03-20T00:19:11.498Z,27.50
2019-03-20T00:21:38.166Z,26.07
2019-03-20T00:24:04.842Z,27.73
2019-03-20T00:26:33.336Z,25.27
2019-03-20T00:28:59.985Z,25.97
2019-03-20T00:31:26.761Z,26.97
2019-03-20T00:33:53.349Z,24.63
2019-03-20T00:36:21.038Z,25.47
2019-03-20T00:38:47.824Z,25.37
2019-03-20T00:41:14.529Z,24.37
2019-03-20T00:43:41.093Z,24.37
2019-03-20T00:46:07.833Z,24.30
2019-03-20T00:48:35.564Z,25.00
2019-03-20T00:51:02.326Z,24.00
2019-03-20T00:53:29.883Z,26.20
2019-03-20T00:55:56.655Z,24.13
2019-03-20T00:58:23.580Z,23.40
2019-03-20T01:00:50.341Z,22.23
2019-03-20T01:03:16.988Z,21.33
2019-03-20T01:05:43.646Z,22.43
2019-03-20T01:08:10.229Z,22.03
2019-03-20T01:10:36.896Z,23.30
2019-03-20T01:13:03.919Z,20.77
2019-03-20T01:15:30.572Z,20.07
2019-03-20T01:17:57.161Z,20.23
2019-03-20T01:21:20.333Z,18.73
2019-03-20T01:23:46.928Z,20.27
2019-03-20T01:26:13.599Z,21.10
2019-03-20T01:28:40.182Z,18.13
2019-03-20T01:31:06.960Z,20.07
2019-03-20T01:33:33.706Z,18.17
2019-03-20T01:36:00.283Z,19.93
2019-03-20T01:38:28.340Z,19.67
2019-03-20T01:40:54.944Z,19.47
2019-03-20T01:43:21.567Z,18.80
2019-03-20T01:45:48.154Z,20.73
2019-03-20T01:48:14.915Z,19.80
2019-03-20T01:50:42.837Z,18.70
2019-03-20T01:53:10.046Z,18.70
2019-03-20T01:55:36.743Z,20.23
2019-03-20T01:58:03.556Z,19.77
2019-03-20T02:00:31.099Z,19.50
2019-03-20T02:02:57.751Z,19.17
2019-03-20T02:05:35.143Z,19.07
2019-03-20T02:07:54.211Z,19.13
2019-03-20T02:10:21.030Z,19.83
2019-03-20T02:12:47.719Z,20.20
2019-03-20T02:15:17.577Z,19.17
2019-03-20T02:17:44.268Z,19.10
2019-03-20T02:20:16.046Z,18.37
2019-03-20T02:22:44.073Z,18.40
2019-03-20T02:25:12.589Z,17.87
2019-03-20T02:27:39.403Z,19.73
2019-03-20T02:30:11.591Z,19.40
2019-03-20T02:32:38.282Z,19.90
2019-03-20T02:35:05.784Z,18.23
2019-03-20T02:37:32.558Z,19.63
2019-03-20T02:39:59.154Z,19.20
2019-03-20T02:42:25.885Z,19.50
2019-03-20T02:44:52.540Z,19.70
2019-03-20T02:47:19.306Z,18.47
2019-03-20T02:49:45.882Z,20.47
2019-03-20T02:52:12.507Z,20.80
2019-03-20T02:54:39.062Z,22.87
2019-03-20T02:57:05.833Z,22.10
2019-03-20T02:59:32.400Z,22.63
2019-03-20T03:02:00.088Z,24.80
2019-03-20T03:04:26.813Z,22.83
2019-03-20T03:06:53.389Z,21.63
2019-03-20T03:09:19.997Z,20.93
2019-03-20T03:11:46.757Z,20.20
2019-03-20T03:14:13.334Z,21.43
2019-03-20T03:16:39.877Z,20.60
2019-03-20T03:19:06.473Z,19.87
2019-03-20T03:21:33.186Z,20.57
2019-03-20T03:23:59.787Z,22.10
2019-03-20T03:26:26.383Z,22.07
2019-03-20T03:28:53.069Z,21.77
2019-03-20T03:31:19.776Z,22.70
2019-03-20T03:33:46.454Z,22.47
2019-03-20T03:36:20.996Z,21.23
2019-03-20T03:38:41.530Z,23.03
2019-03-20T03:41:08.606Z,23.60
2019-03-20T03:43:35.408Z,23.97
2019-03-20T03:46:02.245Z,24.13
2019-03-20T03:48:28.817Z,22.57
2019-03-20T03:50:55.453Z,25.23
2019-03-20T03:53:22.041Z,25.10
2019-03-20T03:55:48.659Z,24.17
2019-03-20T03:58:15.335Z,23.40
2019-03-20T04:00:41.924Z,24.23
2019-03-20T04:03:08.588Z,26.43
2019-03-20T04:05:35.160Z,26.83
2019-03-20T04:08:01.859Z,24.73
2019-03-20T04:10:28.576Z,24.57
2019-03-20T04:12:55.165Z,24.57
2019-03-20T04:15:21.917Z,24.53
2019-03-20T04:17:48.571Z,25.63
2019-03-20T04:20:18.408Z,26.33
2019-03-20T04:22:45.224Z,26.23
2019-03-20T04:25:12.630Z,26.60
2019-03-20T04:27:39.740Z,27.77
2019-03-20T04:30:11.218Z,29.10
2019-03-20T04:32:37.957Z,27.97
2019-03-20T04:35:05.933Z,30.03
2019-03-20T04:37:32.506Z,29.20
2019-03-20T04:40:00.274Z,30.50
2019-03-20T04:42:27.360Z,28.60
2019-03-20T04:44:53.979Z,28.27
2019-03-20T04:47:20.618Z,28.70
2019-03-20T04:49:47.198Z,29.13
2019-03-20T04:52:13.872Z,29.10
2019-03-20T04:54:40.457Z,29.13
2019-03-20T04:57:07.157Z,29.73
2019-03-20T04:59:33.748Z,29.17
2019-03-20T05:02:00.318Z,31.63
2019-03-20T05:04:26.897Z,30.73
2019-03-20T05:06:58.771Z,31.00
2019-03-20T05:09:22.045Z,28.47
2019-03-20T05:11:48.840Z,29.43
2019-03-20T05:14:16.871Z,30.70
2019-03-20T05:16:43.444Z,32.10
2019-03-20T05:19:10.215Z,28.60
2019-03-20T05:21:36.818Z,31.63
2019-03-20T05:24:03.846Z,31.00
2019-03-20T05:26:30.433Z,29.07
2019-03-20T05:28:56.997Z,28.10
2019-03-20T05:31:23.850Z,28.93
2019-03-20T05:33:50.406Z,29.97
2019-03-20T05:36:17.025Z,30.10
2019-03-20T05:38:43.591Z,30.77
2019-03-20T05:41:10.333Z,30.73
2019-03-20T05:43:36.882Z,30.50
2019-03-20T05:46:03.500Z,32.60
2019-03-20T05:49:26.053Z,30.17
2019-03-20T05:51:52.785Z,30.77
2019-03-20T05:54:19.515Z,31.60
2019-03-20T05:56:49.295Z,30.83
2019-03-20T05:59:15.943Z,32.27
2019-03-20T06:01:42.500Z,31.47
2019-03-20T06:04:09.069Z,30.90
2019-03-20T06:06:35.757Z,30.43
2019-03-20T06:09:05.324Z,29.10
2019-03-20T06:11:31.875Z,31.80
2019-03-20T06:14:54.710Z,31.30
2019-03-20T06:17:21.302Z,30.37
2019-03-20T06:19:48.026Z,32.27
2019-03-20T06:22:14.662Z,29.43
2019-03-20T06:24:41.269Z,30.00
2019-03-20T06:27:07.969Z,31.70
2019-03-20T06:29:34.541Z,30.00
2019-03-20T06:32:01.149Z,29.73
2019-03-20T06:34:27.864Z,28.87
2019-03-20T06:36:54.654Z,27.70
2019-03-20T06:39:21.353Z,28.13
2019-03-20T06:41:47.947Z,28.97
2019-03-20T06:44:14.771Z,27.83
2019-03-20T06:46:41.368Z,27.10
2019-03-20T06:49:08.178Z,27.23
2019-03-20T06:51:34.785Z,24.37
2019-03-20T06:54:01.442Z,23.73
2019-03-20T06:56:28.083Z,24.17
2019-03-20T06:59:00.463Z,24.97
2019-03-20T07:01:27.949Z,23.50
2019-03-20T07:04:00.315Z,20.10
2019-03-20T07:06:30.731Z,21.73
2019-03-20T07:09:04.649Z,18.90
2019-03-20T07:11:36.969Z,18.80
2019-03-20T07:14:03.748Z,18.87
2019-03-20T07:16:30.388Z,17.90
2019-03-20T07:18:57.115Z,17.43
2019-03-20T07:21:23.843Z,18.20
2019-03-20T07:23:51.874Z,17.03
2019-03-20T07:26:18.482Z,17.73
2019-03-20T07:28:45.174Z,15.77
2019-03-20T07:31:15.581Z,17.17
2019-03-20T07:33:40.282Z,16.53
2019-03-20T07:36:06.973Z,15.93
2019-03-20T07:38:33.807Z,15.07
2019-03-20T07:41:00.679Z,16.40
2019-03-20T07:43:27.285Z,15.73
2019-03-20T07:45:53.949Z,14.67
2019-03-20T07:48:22.397Z,15.53
2019-03-20T07:50:49.006Z,14.37
2019-03-20T07:53:15.589Z,14.47
2019-03-20T07:55:42.155Z,14.00
2019-03-20T07:58:08.842Z,13.80
2019-03-20T08:00:35.701Z,13.53
2019-03-20T08:03:02.363Z,13.07
2019-03-20T08:05:29.756Z,12.50
2019-03-20T08:08:06.725Z,14.03
2019-03-20T08:10:27.323Z,12.17
2019-03-20T08:12:57.956Z,12.00
2019-03-20T08:15:25.282Z,12.80
2019-03-20T08:17:51.967Z,11.67
2019-03-20T08:20:22.940Z,9.73
2019-03-20T08:22:49.695Z,10.07
2019-03-20T08:25:16.247Z,9.87
2019-03-20T08:27:43.054Z,8.40
2019-03-20T08:30:14.333Z,10.03
2019-03-20T08:32:41.250Z,9.67
2019-03-20T08:35:10.554Z,9.57
2019-03-20T08:37:37.651Z,9.57
2019-03-20T08:40:09.215Z,7.60
2019-03-20T08:42:35.798Z,10.13
2019-03-20T08:45:07.221Z,7.43
2019-03-20T08:47:33.870Z,7.03
2019-03-20T08:50:00.727Z,7.37
2019-03-20T08:52:27.359Z,6.50
2019-03-20T08:54:53.999Z,8.37
2019-03-20T08:57:20.671Z,7.23
2019-03-20T08:59:47.327Z,6.50
2019-03-20T09:02:13.873Z,5.70
2019-03-20T09:04:40.492Z,6.47
2019-03-20T09:07:07.153Z,6.03
2019-03-20T09:09:33.820Z,6.77
2019-03-20T09:12:00.396Z,5.47
2019-03-20T09:14:26.979Z,6.70
2019-03-20T09:16:53.728Z,6.93
2019-03-20T09:19:20.282Z,6.97
2019-03-20T09:21:46.882Z,7.63
2019-03-20T09:24:13.481Z,7.20
2019-03-20T09:26:40.064Z,5.80
2019-03-20T09:29:06.649Z,6.40
2019-03-20T09:31:33.302Z,5.33
2019-03-20T09:33:59.939Z,6.80
2019-03-20T09:36:26.715Z,5.73
2019-03-20T09:38:53.482Z,5.60
2019-03-20T09:41:38.859Z,4.90
2019-03-20T09:44:05.530Z,5.03
2019-03-20T09:46:32.339Z,6.00
2019-03-20T09:48:59.015Z,5.03
2019-03-20T09:51:25.768Z,5.23
2019-03-20T09:53:52.373Z,3.80
2019-03-20T09:56:18.965Z,3.67
2019-03-20T09:58:45.572Z,3.83
2019-03-20T10:01:12.310Z,4.20
2019-03-20T10:03:38.898Z,4.23
2019-03-20T10:06:05.636Z,3.90
2019-03-20T10:08:32.311Z,3.47
2019-03-20T10:10:58.839Z,3.83
2019-03-20T10:13:26.739Z,4.30
2019-03-20T10:15:53.335Z,4.20
2019-03-20T10:18:21.142Z,4.57
2019-03-20T10:20:47.776Z,4.47
2019-03-20T10:23:15.195Z,4.80
2019-03-20T10:25:44.873Z,3.67
2019-03-20T10:29:06.570Z,3.50
2019-03-20T10:31:33.137Z,4.53
2019-03-20T10:33:59.804Z,3.63
2019-03-20T10:36:26.461Z,3.03
2019-03-20T10:38:53.119Z,3.03
2019-03-20T10:41:19.779Z,3.40
2019-03-20T10:44:42.490Z,3.50
2019-03-20T10:47:11.543Z,4.07
2019-03-20T10:49:37.585Z,4.27
2019-03-20T10:52:04.543Z,4.60
2019-03-20T10:54:31.435Z,4.43
2019-03-20T10:56:58.254Z,4.87
2019-03-20T10:59:24.926Z,4.70
2019-03-20T11:01:51.470Z,4.27
2019-03-20T11:04:18.121Z,5.20
2019-03-20T11:06:44.687Z,5.00
2019-03-20T11:09:18.114Z,4.80
2019-03-20T11:11:40.112Z,5.17
2019-03-20T11:14:06.675Z,5.33
2019-03-20T11:16:33.299Z,4.47
2019-03-20T11:18:59.886Z,4.33
2019-03-20T11:21:26.463Z,3.67
2019-03-20T11:23:53.029Z,4.03
2019-03-20T11:26:19.552Z,3.70
2019-03-20T11:28:46.308Z,4.20
2019-03-20T11:31:12.934Z,4.60
2019-03-20T11:33:39.712Z,4.70
2019-03-20T11:36:06.345Z,3.03
2019-03-20T11:38:32.941Z,3.43
2019-03-20T11:40:59.525Z,3.13
2019-03-20T11:43:26.271Z,2.57
2019-03-20T11:45:52.909Z,2.30
2019-03-20T11:48:19.479Z,2.50
2019-03-20T11:50:46.042Z,2.93
2019-03-20T11:53:12.611Z,2.87
2019-03-20T11:55:39.545Z,2.97
2019-03-20T11:58:06.608Z,3.53
2019-03-20T12:00:33.615Z,4.00
2019-03-20T12:03:00.420Z,4.37
2019-03-20T12:05:27.354Z,4.13
2019-03-20T12:07:56.140Z,3.20
2019-03-20T12:11:19.890Z,3.70
2019-03-20T12:13:47.136Z,3.00
2019-03-20T12:16:13.726Z,3.97
2019-03-20T12:18:40.432Z,5.17
2019-03-20T12:21:07.013Z,4.43
2019-03-20T12:23:33.909Z,4.40
2019-03-20T12:26:01.094Z,3.77
2019-03-20T12:28:27.681Z,3.90
2019-03-20T12:30:54.372Z,2.60
2019-03-20T12:33:21.144Z,4.27
2019-03-20T12:35:48.170Z,3.60
2019-03-20T12:38:16.006Z,4.60
2019-03-20T12:40:42.905Z,5.33
2019-03-20T12:43:09.787Z,4.73
2019-03-20T12:45:37.994Z,5.80
2019-03-20T12:48:08.797Z,4.73
2019-03-20T12:50:35.654Z,5.07
2019-03-20T12:53:05.053Z,4.77
2019-03-20T12:55:31.655Z,4.80
2019-03-20T12:57:58.467Z,5.03
2019-03-20T13:00:27.586Z,5.93
2019-03-20T13:02:54.785Z,4.90
2019-03-20T13:05:21.549Z,3.83
2019-03-20T13:07:49.687Z,4.37
2019-03-20T13:10:20.730Z,4.43
2019-03-20T13:12:47.867Z,5.60
2019-03-20T13:15:17.498Z,6.33
2019-03-20T13:17:44.234Z,5.77
2019-03-20T13:20:11.088Z,5.77
2019-03-20T13:22:38.033Z,5.43
2019-03-20T13:25:09.615Z,4.90
2019-03-20T13:27:36.563Z,5.23
2019-03-20T13:30:08.872Z,4.87
2019-03-20T13:32:35.546Z,5.40
2019-03-20T13:35:04.508Z,5.13
2019-03-20T13:37:32.361Z,5.57
2019-03-20T13:39:59.074Z,5.47
2019-03-20T13:42:26.792Z,4.50
2019-03-20T13:44:54.580Z,4.90
2019-03-20T13:47:25.329Z,7.87
2019-03-20T13:49:52.033Z,6.67
2019-03-20T13:52:18.616Z,8.03
2019-03-20T13:54:45.209Z,6.60
2019-03-20T13:57:11.862Z,6.67
2019-03-20T13:59:38.467Z,6.23
2019-03-20T14:02:05.251Z,6.87
2019-03-20T14:04:31.895Z,7.03
2019-03-20T14:07:01.463Z,7.20
2019-03-20T14:09:28.027Z,6.60
2019-03-20T14:11:54.649Z,6.40
2019-03-20T14:14:21.283Z,5.10
2019-03-20T14:16:47.907Z,4.83
2019-03-20T14:19:14.551Z,6.00
2019-03-20T14:21:41.239Z,5.23
2019-03-20T14:24:07.940Z,5.43
2019-03-20T14:26:34.545Z,7.10
2019-03-20T14:29:01.200Z,6.27
2019-03-20T14:31:27.910Z,5.73
2019-03-20T14:33:54.500Z,6.20
2019-03-20T14:36:21.226Z,8.40
2019-03-20T14:38:48.294Z,6.60
2019-03-20T14:41:21.447Z,6.73
2019-03-20T14:43:44.645Z,5.73
2019-03-20T14:46:11.236Z,5.60
2019-03-20T14:48:37.948Z,6.70
2019-03-20T14:51:04.651Z,7.17
2019-03-20T14:53:31.421Z,5.33
2019-03-20T14:55:58.097Z,5.73
2019-03-20T14:58:25.790Z,5.13
2019-03-20T15:00:53.866Z,10.63
2019-03-20T15:03:20.411Z,5.13
2019-03-20T15:05:47.112Z,5.87
2019-03-20T15:08:13.684Z,5.60
2019-03-20T15:10:45.935Z,5.13
2019-03-20T15:13:08.830Z,5.47
2019-03-20T15:15:40.572Z,6.23
2019-03-20T15:18:07.733Z,5.60
2019-03-20T15:20:34.702Z,5.30
2019-03-20T15:23:01.552Z,5.20
2019-03-20T15:26:43.373Z,5.40
2019-03-20T15:29:10.053Z,6.17
2019-03-20T15:31:36.675Z,5.90
2019-03-20T15:34:05.309Z,6.37
2019-03-20T15:36:33.067Z,5.00
2019-03-20T15:38:59.637Z,7.70
2019-03-20T15:41:26.463Z,12.97
2019-03-20T15:44:02.133Z,11.93
2019-03-20T15:46:21.679Z,8.63
2019-03-20T15:48:48.265Z,8.50
2019-03-20T15:52:11.576Z,6.50
2019-03-20T15:54:38.127Z,7.53
2019-03-20T15:57:04.753Z,7.57
2019-03-20T15:59:31.569Z,6.57
2019-03-20T16:01:58.175Z,7.93
2019-03-20T16:04:24.842Z,7.40
2019-03-20T16:06:53.466Z,7.13
2019-03-20T16:09:20.144Z,8.50
2019-03-20T16:11:46.730Z,12.73
2019-03-20T16:14:13.297Z,9.07
2019-03-20T16:16:39.885Z,13.80
2019-03-20T16:19:06.462Z,10.77
2019-03-20T16:21:33.045Z,9.07
2019-03-20T16:23:59.599Z,11.33
2019-03-20T16:26:26.245Z,6.80
2019-03-20T16:28:54.002Z,9.27
2019-03-20T16:31:21.846Z,8.40
2019-03-20T16:33:48.442Z,8.87
2019-03-20T16:36:15.187Z,7.97
2019-03-20T16:38:44.940Z,9.17
2019-03-20T16:41:16.789Z,9.90
2019-03-20T16:43:40.068Z,8.67
2019-03-20T16:46:08.033Z,8.13
2019-03-20T16:48:34.794Z,9.37
2019-03-20T16:51:01.530Z,9.10
2019-03-20T16:53:28.272Z,8.63
2019-03-20T16:55:54.826Z,8.13
2019-03-20T16:58:21.549Z,9.80
2019-03-20T17:00:48.444Z,8.87
2019-03-20T17:03:15.304Z,10.47
2019-03-20T17:05:42.307Z,10.73
2019-03-20T17:08:10.247Z,10.03
2019-03-20T17:10:41.816Z,10.10
2019-03-20T17:13:08.422Z,10.73
2019-03-20T17:15:39.401Z,15.10
2019-03-20T17:18:07.207Z,12.50
2019-03-20T17:20:34.065Z,12.17
2019-03-20T17:23:01.243Z,13.13
2019-03-20T17:25:28.221Z,12.30
2019-03-20T17:27:55.103Z,12.83
2019-03-20T17:30:26.815Z,12.40
2019-03-20T17:32:53.594Z,16.77
2019-03-20T17:35:21.382Z,23.73
2019-03-20T17:37:48.408Z,23.53
2019-03-20T17:40:20.064Z,16.37
2019-03-20T17:42:47.081Z,12.00
2019-03-20T17:45:17.485Z,11.93
2019-03-20T17:47:44.467Z,10.10
2019-03-20T17:50:17.232Z,9.27
2019-03-20T17:52:45.261Z,9.87
2019-03-20T17:55:12.572Z,12.80
2019-03-20T17:57:39.143Z,11.43
2019-03-20T18:00:12.309Z,16.60
2019-03-20T18:02:38.872Z,18.93
2019-03-20T18:05:07.900Z,22.30
2019-03-20T18:07:34.529Z,24.20
2019-03-20T18:10:01.086Z,28.97
2019-03-20T18:12:27.697Z,28.47
2019-03-20T18:14:55.383Z,28.50
2019-03-20T18:17:22.016Z,29.57
2019-03-20T18:19:48.588Z,28.43
2019-03-20T18:22:15.170Z,26.63
2019-03-20T18:24:41.792Z,27.77
2019-03-20T18:27:08.505Z,27.17
2019-03-20T18:29:35.187Z,30.67
2019-03-20T18:33:17.269Z,30.73
2019-03-20T18:35:43.853Z,29.40
2019-03-20T18:38:10.600Z,29.93
2019-03-20T18:40:37.329Z,31.40
2019-03-20T18:43:04.240Z,31.27
2019-03-20T18:45:31.039Z,32.30
2019-03-20T18:48:54.057Z,30.73
2019-03-20T18:51:20.666Z,29.03
2019-03-20T18:53:48.266Z,28.83
2019-03-20T18:56:15.021Z,27.77
2019-03-20T18:58:41.698Z,26.77
2019-03-20T19:01:10.080Z,27.23
2019-03-20T19:03:42.601Z,28.17
2019-03-20T19:06:14.928Z,27.40
2019-03-20T19:08:41.720Z,32.80
2019-03-20T19:11:08.459Z,39.97
2019-03-20T19:13:35.244Z,40.97
2019-03-20T19:16:02.152Z,35.13
2019-03-20T19:18:28.864Z,36.97
2019-03-20T19:20:55.654Z,34.17
2019-03-20T19:23:22.544Z,31.30
2019-03-20T19:25:49.145Z,29.20
2019-03-20T19:28:16.525Z,26.83
2019-03-20T19:30:43.134Z,22.37
2019-03-20T19:33:09.845Z,21.53
2019-03-20T19:35:36.644Z,20.63
2019-03-20T19:38:03.513Z,19.63
2019-03-20T19:40:30.152Z,18.10
2019-03-20T19:42:56.845Z,16.97
2019-03-20T19:45:23.681Z,17.37
2019-03-20T19:47:50.276Z,17.97
2019-03-20T19:50:20.581Z,18.27
2019-03-20T19:52:47.472Z,19.57
2019-03-20T19:55:16.264Z,21.30
2019-03-20T19:57:43.133Z,21.97
2019-03-20T20:00:15.470Z,21.47
2019-03-20T20:02:42.340Z,23.43
2019-03-20T20:05:15.937Z,23.17
2019-03-20T20:07:40.915Z,24.60
2019-03-20T20:10:12.324Z,23.33
2019-03-20T20:12:39.022Z,22.80
2019-03-20T20:15:12.425Z,21.33
2019-03-20T20:17:39.318Z,21.47
2019-03-20T20:20:11.601Z,24.30
2019-03-20T20:22:38.216Z,23.50
2019-03-20T20:25:06.461Z,23.27
2019-03-20T20:27:33.142Z,23.87
2019-03-20T20:29:59.770Z,23.87
2019-03-20T20:32:26.522Z,23.03
2019-03-20T20:34:53.131Z,24.40
2019-03-20T20:37:19.756Z,21.93
2019-03-20T20:39:46.364Z,20.30
2019-03-20T20:42:12.976Z,22.03
2019-03-20T20:44:40.571Z,21.30
2019-03-20T20:48:03.670Z,20.70
2019-03-20T20:50:32.210Z,19.43
2019-03-20T20:52:59.065Z,20.27
2019-03-20T20:55:25.826Z,20.90
2019-03-20T20:57:52.581Z,21.90
2019-03-20T21:00:21.862Z,21.43
2019-03-20T21:02:48.989Z,22.17
2019-03-20T21:05:16.676Z,23.77
2019-03-20T21:08:41.425Z,22.23
2019-03-20T21:11:08.112Z,22.27
2019-03-20T21:14:12.182Z,22.50
2019-03-20T21:16:38.803Z,22.10
2019-03-20T21:19:11.216Z,21.90
2019-03-20T21:21:40.877Z,22.37
2019-03-20T21:24:14.317Z,21.10
2019-03-20T21:26:46.643Z,19.53
2019-03-20T21:29:19.191Z,19.90
2019-03-20T21:31:51.656Z,18.37
2019-03-20T21:34:24.115Z,18.30
2019-03-20T21:36:56.572Z,18.23
2019-03-20T21:39:29.232Z,18.50
2019-03-20T21:42:00.096Z,17.27
2019-03-20T21:44:28.994Z,17.87
2019-03-20T21:46:59.435Z,17.50
2019-03-20T21:53:25.660Z,17.83
2019-03-20T21:55:58.211Z,18.03
2019-03-20T21:58:30.457Z,16.33
2019-03-20T22:01:02.823Z,16.37
2019-03-20T22:03:30.772Z,16.90
2019-03-20T22:06:01.174Z,15.90
2019-03-20T22:08:27.793Z,14.97
2019-03-20T22:11:03.014Z,15.50
2019-03-20T22:13:35.434Z,14.73
2019-03-20T22:16:08.220Z,13.50
2019-03-20T22:18:40.623Z,14.47
2019-03-20T22:21:13.209Z,16.20
2019-03-20T22:23:43.720Z,16.77
2019-03-20T22:26:16.096Z,15.20
2019-03-20T22:28:46.585Z,16.93
2019-03-20T22:31:13.441Z,16.70
2019-03-20T22:33:45.736Z,17.40
2019-03-20T22:36:12.769Z,16.63
2019-03-20T22:38:45.084Z,16.80
2019-03-20T22:41:16.701Z,17.23
2019-03-20T22:43:49.056Z,17.83
2019-03-20T22:46:21.530Z,19.30
2019-03-20T22:48:53.907Z,16.77
2019-03-20T22:51:26.400Z,16.50
2019-03-20T22:53:56.866Z,16.43
2019-03-20T22:56:30.388Z,15.50
2019-03-20T22:58:56.951Z,16.23
2019-03-20T23:01:29.344Z,16.90
2019-03-20T23:04:01.810Z,15.57
2019-03-20T23:06:28.566Z,13.23
2019-03-20T23:08:55.294Z,12.67
2019-03-20T23:11:22.190Z,13.40
2019-03-20T23:13:48.757Z,14.20
2019-03-20T23:16:19.222Z,12.77
2019-03-20T23:18:45.808Z,13.07
2019-03-20T23:21:12.378Z,14.60
2019-03-20T23:23:40.298Z,15.37
2019-03-20T23:26:07.166Z,15.27
2019-03-20T23:28:34.005Z,14.20
2019-03-20T23:31:00.609Z,12.80
2019-03-20T23:33:27.367Z,12.27
2019-03-20T23:35:53.995Z,12.00
2019-03-20T23:38:20.786Z,11.73
2019-03-20T23:40:47.471Z,10.73
2019-03-20T23:43:14.219Z,11.03
2019-03-20T23:45:40.938Z,10.27
2019-03-20T23:48:09.480Z,11.10
2019-03-20T23:50:36.234Z,10.33
2019-03-20T23:53:03.347Z,9.80
2019-03-20T23:55:30.242Z,8.77
2019-03-20T23:57:56.891Z,9.53
